Terminal Aerodrome Forecast
Issued by NWS

Home | Current Version | Previous Version | Text Only | Print | Product List | Glossary On
Versions: 1 2 3 4 5 6 7 8 9 10 11 12 13 14 15 16 17 18 19 20
600
FTUS44 KLZK 241740
TAFHRO
TAF
KHRO 241740Z 2418/2518 15014G22KT P6SM SCT250
     FM250100 17010G18KT P6SM SCT250
     FM251000 24009KT P6SM BKN250
     FM251500 28009KT P6SM SCT040 BKN250=

USA.gov is the U.S. government's official web portal to all federal, state and local government web resources and services.